createdAt,value
2019-06-20T00:00:33.655Z,63440.55
2019-06-20T00:02:59.875Z,63432.79
2019-06-20T00:05:26.229Z,63437.15
2019-06-20T00:07:52.477Z,63425.12
2019-06-20T00:10:18.736Z,63421.92
2019-06-20T00:12:59.443Z,63408.57
2019-06-20T00:15:13.420Z,63404.39
2019-06-20T00:17:39.652Z,63393.03
2019-06-20T00:20:05.904Z,63380.61
2019-06-20T00:22:32.034Z,63370.55
2019-06-20T00:24:58.163Z,63369.45
2019-06-20T00:27:24.285Z,63370.76
2019-06-20T00:29:50.515Z,63372.06
2019-06-20T00:32:16.750Z,63369.45
2019-06-20T00:34:42.880Z,63364.95
2019-06-20T00:37:09.036Z,63352.37
2019-06-20T00:39:35.414Z,63342.41
2019-06-20T00:42:01.648Z,63338.80
2019-06-20T00:44:28.963Z,63340.66
2019-06-20T00:46:57.048Z,63339.88
2019-06-20T00:49:24.641Z,63335.85
2019-06-20T00:51:51.895Z,63329.83
2019-06-20T00:54:18.111Z,63321.07
2019-06-20T00:56:47.566Z,63315.38
2019-06-20T00:59:18.509Z,63314.30
2019-06-20T01:01:44.745Z,63317.99
2019-06-20T01:04:11.001Z,63318.21
2019-06-20T01:06:37.270Z,63312.65
2019-06-20T01:09:06.456Z,63315.38
2019-06-20T01:11:33.942Z,63320.07
2019-06-20T01:14:00.097Z,63309.92
2019-06-20T01:16:26.219Z,63302.46
2019-06-20T01:18:52.442Z,63299.05
2019-06-20T01:21:19.639Z,63291.86
2019-06-20T01:23:45.852Z,63289.33
2019-06-20T01:26:12.002Z,63282.77
2019-06-20T01:28:39.704Z,63276.21
2019-06-20T01:31:06.268Z,63278.39
2019-06-20T01:33:35.521Z,63285.18
2019-06-20T01:36:03.553Z,63282.02
2019-06-20T01:38:29.781Z,63286.60
2019-06-20T01:40:56.137Z,63292.41
2019-06-20T01:43:22.418Z,63305.96
2019-06-20T01:45:48.736Z,63319.44
2019-06-20T01:48:16.233Z,63330.71
2019-06-20T01:50:42.449Z,63346.25
2019-06-20T01:53:10.000Z,63364.86
2019-06-20T01:55:36.227Z,63381.50
2019-06-20T01:58:03.012Z,63395.56
2019-06-20T02:00:41.875Z,63405.41
2019-06-20T02:03:08.253Z,63416.91
2019-06-20T02:05:34.827Z,63428.08
2019-06-20T02:08:01.082Z,63433.46
2019-06-20T02:10:27.356Z,63450.55
2019-06-20T02:12:54.782Z,63465.55
2019-06-20T02:15:24.900Z,63477.73
2019-06-20T02:17:51.035Z,63490.42
2019-06-20T02:20:34.982Z,63495.48
2019-06-20T02:23:01.179Z,63497.66
2019-06-20T02:25:27.396Z,63513.57
2019-06-20T02:27:53.559Z,63527.82
2019-06-20T02:30:19.997Z,63532.68
2019-06-20T02:32:46.246Z,63544.29
2019-06-20T02:35:12.357Z,63552.93
2019-06-20T02:37:38.497Z,63555.37
2019-06-20T02:40:05.425Z,63566.21
2019-06-20T02:42:31.998Z,63570.51
2019-06-20T02:44:58.127Z,63582.33
2019-06-20T02:47:24.372Z,63592.77
2019-06-20T02:49:51.822Z,63601.77
2019-06-20T02:52:19.679Z,63607.38
2019-06-20T02:54:46.548Z,63613.21
2019-06-20T02:57:12.842Z,63620.02
2019-06-20T02:59:39.112Z,63617.93
2019-06-20T03:02:07.879Z,63621.21
2019-06-20T03:04:34.097Z,63623.63
2019-06-20T03:07:00.679Z,63629.78
2019-06-20T03:09:29.164Z,63639.97
2019-06-20T03:11:58.533Z,63646.14
2019-06-20T03:14:24.677Z,63657.01
2019-06-20T03:16:50.793Z,63659.31
2019-06-20T03:19:17.009Z,63667.99
2019-06-20T03:21:43.228Z,63668.65
2019-06-20T03:24:09.357Z,63670.84
2019-06-20T03:26:35.513Z,63677.66
2019-06-20T03:29:01.643Z,63684.80
2019-06-20T03:31:28.272Z,63688.85
2019-06-20T03:33:54.802Z,63687.30
2019-06-20T03:36:21.027Z,63696.20
2019-06-20T03:38:47.288Z,63704.23
2019-06-20T03:41:15.249Z,63714.99
2019-06-20T03:43:44.368Z,63727.73
2019-06-20T03:46:10.990Z,63727.31
2019-06-20T03:48:37.503Z,63738.62
2019-06-20T03:51:05.003Z,63742.34
2019-06-20T03:53:32.966Z,63742.47
2019-06-20T03:55:59.083Z,63751.14
2019-06-20T03:58:26.534Z,63753.02
2019-06-20T04:00:56.589Z,63762.47
2019-06-20T04:03:24.146Z,63765.45
2019-06-20T04:05:53.444Z,63766.66
2019-06-20T04:08:19.671Z,63771.73
2019-06-20T04:10:45.906Z,63782.27
2019-06-20T04:13:12.034Z,63784.04
2019-06-20T04:15:38.171Z,63786.02
2019-06-20T04:18:04.284Z,63792.15
2019-06-20T04:20:30.516Z,63800.41
2019-06-20T04:22:56.634Z,63813.59
2019-06-20T04:25:22.943Z,63820.53
2019-06-20T04:27:49.191Z,63832.08
2019-06-20T04:30:16.227Z,63843.29
2019-06-20T04:32:42.371Z,63848.46
2019-06-20T04:35:08.593Z,63854.40
2019-06-20T04:37:34.737Z,63863.87
2019-06-20T04:40:00.967Z,63863.42
2019-06-20T04:42:27.108Z,63861.76
2019-06-20T04:44:55.502Z,63850.89
2019-06-20T04:47:21.739Z,63856.48
2019-06-20T04:49:47.967Z,63857.04
2019-06-20T04:52:14.192Z,63861.44
2019-06-20T04:54:40.331Z,63873.21
2019-06-20T04:57:06.448Z,63877.61
2019-06-20T04:59:34.533Z,63881.23
2019-06-20T05:02:00.783Z,63884.55
2019-06-20T05:04:26.882Z,63891.36
2019-06-20T05:07:02.427Z,63882.24
2019-06-20T05:09:28.645Z,63884.87
2019-06-20T05:11:54.877Z,63882.80
2019-06-20T05:14:21.115Z,63889.17
2019-06-20T05:16:47.247Z,63893.79
2019-06-20T05:19:13.472Z,63896.87
2019-06-20T05:21:39.696Z,63896.64
2019-06-20T05:24:05.825Z,63905.67
2019-06-20T05:26:31.956Z,63904.46
2019-06-20T05:28:58.195Z,63897.44
2019-06-20T05:31:24.477Z,63900.74
2019-06-20T05:33:50.643Z,63897.65
2019-06-20T05:36:16.888Z,63903.24
2019-06-20T05:38:43.131Z,63903.91
2019-06-20T05:41:09.357Z,63905.02
2019-06-20T05:43:35.592Z,63915.59
2019-06-20T05:46:09.678Z,63914.27
2019-06-20T05:48:29.972Z,63918.46
2019-06-20T05:50:56.208Z,63921.21
2019-06-20T05:53:22.442Z,63916.25
2019-06-20T05:55:48.658Z,63918.36
2019-06-20T05:58:15.495Z,63921.43
2019-06-20T06:00:41.786Z,63917.81
2019-06-20T06:03:07.984Z,63928.05
2019-06-20T06:05:34.208Z,63931.55
2019-06-20T06:08:00.454Z,63939.27
2019-06-20T06:10:26.681Z,63941.36
2019-06-20T06:12:52.902Z,63949.07
2019-06-20T06:15:19.212Z,63950.39
2019-06-20T06:17:45.441Z,63946.53
2019-06-20T06:20:12.485Z,63949.28
2019-06-20T06:22:39.258Z,63946.32
2019-06-20T06:25:06.180Z,63970.09
2019-06-20T06:27:32.403Z,63983.31
2019-06-20T06:29:58.626Z,63989.92
2019-06-20T06:32:39.230Z,63999.72
2019-06-20T06:34:52.834Z,64015.02
2019-06-20T06:37:18.972Z,64026.38
2019-06-20T06:39:45.188Z,64051.95
2019-06-20T06:42:11.425Z,64064.08
2019-06-20T06:44:37.536Z,64071.70
2019-06-20T06:47:03.758Z,64097.37
2019-06-20T06:49:29.905Z,64116.56
2019-06-20T06:51:56.145Z,64138.94
2019-06-20T06:54:22.404Z,64143.35
2019-06-20T06:56:48.775Z,64138.49
2019-06-20T06:59:14.905Z,64151.40
2019-06-20T07:01:41.052Z,64146.11
2019-06-20T07:04:07.403Z,64149.30
2019-06-20T07:06:33.668Z,64145.00
2019-06-20T07:08:59.942Z,64162.21
2019-06-20T07:11:26.098Z,64174.91
2019-06-20T07:13:52.212Z,64182.64
2019-06-20T07:16:18.367Z,64178.11
2019-06-20T07:18:44.467Z,64178.22
2019-06-20T07:21:10.718Z,64185.52
2019-06-20T07:23:36.941Z,64193.78
2019-06-20T07:26:03.266Z,64211.56
2019-06-20T07:28:29.563Z,64211.66
2019-06-20T07:30:56.847Z,64224.34
2019-06-20T07:33:26.960Z,64238.80
2019-06-20T07:35:59.169Z,64238.80
2019-06-20T07:38:27.116Z,64241.68
2019-06-20T07:40:53.344Z,64253.28
2019-06-20T07:43:23.583Z,64260.45
2019-06-20T07:46:01.957Z,64270.60
2019-06-20T07:48:19.612Z,64281.75
2019-06-20T07:50:48.252Z,64273.25
2019-06-20T07:53:14.420Z,64273.25
2019-06-20T07:55:43.006Z,64270.17
2019-06-20T07:58:11.667Z,64269.83
2019-06-20T08:00:37.798Z,64274.36
2019-06-20T08:03:03.952Z,64279.76
2019-06-20T08:05:30.081Z,64282.64
2019-06-20T08:07:56.236Z,64280.53
2019-06-20T08:10:27.425Z,64298.45
2019-06-20T08:12:54.932Z,64303.30
2019-06-20T08:15:23.939Z,64294.13
2019-06-20T08:17:51.875Z,64306.84
2019-06-20T08:20:19.023Z,64314.02
2019-06-20T08:22:47.418Z,64328.49
2019-06-20T08:25:15.918Z,64346.27
2019-06-20T08:27:51.655Z,64343.20
2019-06-20T08:30:22.772Z,64349.05
2019-06-20T08:32:49.047Z,64360.76
2019-06-20T08:35:18.589Z,64366.73
2019-06-20T08:37:46.325Z,64370.48
2019-06-20T08:40:15.512Z,64382.42
2019-06-20T08:42:44.895Z,64377.54
2019-06-20T08:45:14.624Z,64386.71
2019-06-20T08:47:41.276Z,64390.37
2019-06-20T08:50:09.019Z,64377.78
2019-06-20T08:52:35.972Z,64371.47
2019-06-20T08:55:08.695Z,64381.86
2019-06-20T08:57:34.817Z,64388.04
2019-06-20T09:00:00.970Z,64405.42
2019-06-20T09:02:27.097Z,64420.91
2019-06-20T09:04:55.220Z,64431.85
2019-06-20T09:07:23.129Z,64438.59
2019-06-20T09:09:50.421Z,64450.77
2019-06-20T09:12:16.656Z,64446.66
2019-06-20T09:14:42.934Z,64455.83
2019-06-20T09:17:09.245Z,64458.49
2019-06-20T09:19:35.341Z,64454.18
2019-06-20T09:22:04.668Z,64448.11
2019-06-20T09:24:31.330Z,64443.89
2019-06-20T09:26:57.484Z,64440.12
2019-06-20T09:29:38.341Z,64442.25
2019-06-20T09:31:55.642Z,64441.57
2019-06-20T09:34:23.451Z,64427.64
2019-06-20T09:36:51.938Z,64419.68
2019-06-20T09:39:18.235Z,64409.08
2019-06-20T09:41:44.372Z,64403.41
2019-06-20T09:44:10.521Z,64386.39
2019-06-20T09:46:36.795Z,64373.14
2019-06-20T09:49:03.292Z,64365.27
2019-06-20T09:51:29.554Z,64350.80
2019-06-20T09:53:56.355Z,64348.05
2019-06-20T09:56:22.533Z,64327.83
2019-06-20T09:58:49.596Z,64293.36
2019-06-20T10:01:16.203Z,64287.28
2019-06-20T10:03:42.441Z,64287.83
2019-06-20T10:06:13.749Z,64283.63
2019-06-20T10:08:36.970Z,64290.70
2019-06-20T10:11:03.195Z,64291.38
2019-06-20T10:13:32.549Z,64286.72
2019-06-20T10:15:57.397Z,64269.61
2019-06-20T10:18:23.534Z,64269.61
2019-06-20T10:20:51.471Z,64249.29
2019-06-20T10:23:17.624Z,64249.29
2019-06-20T10:25:46.101Z,64236.26
2019-06-20T10:28:11.972Z,64222.70
2019-06-20T10:30:38.234Z,64208.68
2019-06-20T10:33:04.341Z,64212.64
2019-06-20T10:35:30.590Z,64223.47
2019-06-20T10:37:57.300Z,64233.08
2019-06-20T10:40:24.105Z,64243.77
2019-06-20T10:42:50.375Z,64243.77
2019-06-20T10:45:18.997Z,64250.73
2019-06-20T10:47:47.278Z,64241.68
2019-06-20T10:50:17.498Z,64241.68
2019-06-20T10:52:43.725Z,64237.48
2019-06-20T10:55:10.498Z,64222.70
2019-06-20T10:57:36.779Z,64215.40
2019-06-20T11:00:09.302Z,64213.41
2019-06-20T11:02:35.537Z,64201.29
2019-06-20T11:05:04.074Z,64200.29
2019-06-20T11:07:30.207Z,64200.29
2019-06-20T11:09:57.751Z,64182.21
2019-06-20T11:12:24.987Z,64187.82
2019-06-20T11:14:52.783Z,64188.16
2019-06-20T11:17:20.824Z,64187.27
2019-06-20T11:19:48.044Z,64174.25
2019-06-20T11:22:15.407Z,64171.71
2019-06-20T11:24:43.044Z,64173.93
2019-06-20T11:27:09.674Z,64171.71
2019-06-20T11:29:37.801Z,64168.38
2019-06-20T11:32:03.896Z,64157.24
2019-06-20T11:34:31.706Z,64147.43
2019-06-20T11:36:57.923Z,64155.60
2019-06-20T11:39:24.055Z,64151.84
2019-06-20T11:41:51.777Z,64146.55
2019-06-20T11:44:19.726Z,64163.98
2019-06-20T11:46:47.101Z,64168.38
2019-06-20T11:49:13.617Z,64186.84
2019-06-20T11:51:39.907Z,64205.58
2019-06-20T11:54:06.150Z,64245.44
2019-06-20T11:56:32.688Z,64276.13
2019-06-20T11:59:00.766Z,64291.81
2019-06-20T12:01:32.915Z,64301.31
2019-06-20T12:03:57.035Z,64299.88
2019-06-20T12:06:24.287Z,64288.82
2019-06-20T12:08:52.810Z,64299.33
2019-06-20T12:11:20.787Z,64292.70
2019-06-20T12:13:49.598Z,64280.31
2019-06-20T12:16:16.218Z,64280.10
2019-06-20T12:18:43.147Z,64289.16
2019-06-20T12:21:12.457Z,64300.88
2019-06-20T12:23:40.700Z,64321.20
2019-06-20T12:26:09.260Z,64321.20
2019-06-20T12:28:35.413Z,64328.70
2019-06-20T12:31:01.695Z,64336.22
2019-06-20T12:33:27.929Z,64351.46
2019-06-20T12:35:54.279Z,64393.02
2019-06-20T12:38:20.510Z,64405.21
2019-06-20T12:40:46.740Z,64418.91
2019-06-20T12:43:12.890Z,64431.29
2019-06-20T12:45:40.025Z,64430.18
2019-06-20T12:48:07.273Z,64443.89
2019-06-20T12:50:35.324Z,64470.21
2019-06-20T12:53:01.598Z,64473.31
2019-06-20T12:55:27.901Z,64505.19
2019-06-20T12:57:54.206Z,64537.62
2019-06-20T13:00:21.482Z,64534.63
2019-06-20T13:02:47.834Z,64571.15
2019-06-20T13:05:21.158Z,64628.96
2019-06-20T13:07:50.439Z,64689.25
2019-06-20T13:10:17.852Z,64717.19
2019-06-20T13:12:46.353Z,64734.48
2019-06-20T13:15:14.482Z,64759.98
2019-06-20T13:17:47.013Z,64744.23
2019-06-20T13:20:14.160Z,64749.55
2019-06-20T13:22:44.825Z,64790.46
2019-06-20T13:25:14.185Z,64802.57
2019-06-20T13:27:41.054Z,64831.63
2019-06-20T13:30:09.618Z,64852.48
2019-06-20T13:32:42.047Z,64834.42
2019-06-20T13:35:11.449Z,64840.95
2019-06-20T13:37:38.220Z,64871.81
2019-06-20T13:40:13.562Z,64861.27
2019-06-20T13:42:41.953Z,64856.61
2019-06-20T13:45:27.505Z,64854.06
2019-06-20T13:47:54.248Z,64873.37
2019-06-20T13:50:23.043Z,64871.04
2019-06-20T13:52:51.158Z,64874.58
2019-06-20T13:55:18.023Z,64886.48
2019-06-20T13:57:45.235Z,64891.80
2019-06-20T14:00:15.007Z,64915.12
2019-06-20T14:02:43.298Z,64940.85
2019-06-20T14:05:10.448Z,64884.93
2019-06-20T14:07:43.585Z,64883.81
2019-06-20T14:10:08.786Z,64885.92
2019-06-20T14:12:36.854Z,64912.89
2019-06-20T14:15:05.184Z,64924.42
2019-06-20T14:17:31.852Z,64932.88
2019-06-20T14:20:00.374Z,64958.20
2019-06-20T14:22:32.826Z,64926.00
2019-06-20T14:24:59.390Z,64914.00
2019-06-20T14:27:28.900Z,64948.75
2019-06-20T14:29:58.487Z,64962.89
2019-06-20T14:32:24.783Z,64949.86
2019-06-20T14:34:52.649Z,64937.09
2019-06-20T14:37:20.164Z,64924.45
2019-06-20T14:39:46.868Z,64912.45
2019-06-20T14:42:15.554Z,64916.77
2019-06-20T14:44:44.098Z,64906.79
2019-06-20T14:47:11.992Z,64901.57
2019-06-20T14:49:38.239Z,64887.38
2019-06-20T14:52:04.697Z,64880.27
2019-06-20T14:54:31.871Z,64867.37
2019-06-20T14:56:58.415Z,64852.72
2019-06-20T14:59:27.971Z,64854.93
2019-06-20T15:01:55.501Z,64847.82
2019-06-20T15:04:24.391Z,64836.85
2019-06-20T15:06:50.643Z,64819.54
2019-06-20T15:09:16.776Z,64815.55
2019-06-20T15:11:45.834Z,64814.12
2019-06-20T15:14:11.275Z,64807.23
2019-06-20T15:16:37.404Z,64804.68
2019-06-20T15:19:03.656Z,64790.92
2019-06-20T15:21:29.788Z,64779.49
2019-06-20T15:23:56.670Z,64763.74
2019-06-20T15:26:22.966Z,64767.50
2019-06-20T15:28:49.770Z,64763.96
2019-06-20T15:31:17.348Z,64762.53
2019-06-20T15:33:43.727Z,64748.68
2019-06-20T15:36:10.040Z,64744.79
2019-06-20T15:38:36.287Z,64741.47
2019-06-20T15:41:04.345Z,64747.56
2019-06-20T15:43:30.567Z,64755.64
2019-06-20T15:45:58.385Z,64759.76
2019-06-20T15:48:24.649Z,64766.41
2019-06-20T15:50:50.820Z,64757.53
2019-06-20T15:53:17.021Z,64747.10
2019-06-20T15:55:44.836Z,64753.21
2019-06-20T15:58:10.974Z,64752.87
2019-06-20T16:00:37.210Z,64740.45
2019-06-20T16:03:10.006Z,64731.04
2019-06-20T16:05:31.744Z,64721.84
2019-06-20T16:07:57.975Z,64720.17
2019-06-20T16:10:24.242Z,64707.20
2019-06-20T16:12:50.493Z,64689.35
2019-06-20T16:15:21.613Z,64678.27
2019-06-20T16:17:50.591Z,64676.84
2019-06-20T16:20:17.079Z,64676.16
2019-06-20T16:22:43.336Z,64685.47
2019-06-20T16:25:10.344Z,64686.46
2019-06-20T16:27:37.043Z,64696.87
2019-06-20T16:30:07.222Z,64686.59
2019-06-20T16:32:33.467Z,64690.22
2019-06-20T16:34:59.700Z,64693.11
2019-06-20T16:37:25.938Z,64697.01
2019-06-20T16:39:52.178Z,64699.44
2019-06-20T16:42:19.004Z,64697.79
2019-06-20T16:44:45.153Z,64707.00
2019-06-20T16:47:11.434Z,64703.87
2019-06-20T16:49:37.657Z,64694.20
2019-06-20T16:52:05.313Z,64684.57
2019-06-20T16:54:31.535Z,64689.57
2019-06-20T16:56:57.769Z,64695.99
2019-06-20T16:59:24.019Z,64683.80
2019-06-20T17:01:51.125Z,64672.94
2019-06-20T17:04:17.251Z,64671.27
2019-06-20T17:06:43.506Z,64670.29
2019-06-20T17:09:10.054Z,64669.52
2019-06-20T17:11:36.240Z,64670.29
2019-06-20T17:14:02.472Z,64663.65
2019-06-20T17:16:28.700Z,64658.00
2019-06-20T17:18:54.947Z,64652.45
2019-06-20T17:21:21.121Z,64643.38
2019-06-20T17:23:47.390Z,64626.54
2019-06-20T17:26:13.688Z,64615.00
2019-06-20T17:28:39.928Z,64603.15
2019-06-20T17:31:06.072Z,64588.54
2019-06-20T17:33:32.320Z,64579.12
2019-06-20T17:35:58.556Z,64578.90
2019-06-20T17:38:24.879Z,64573.70
2019-06-20T17:40:51.134Z,64567.27
2019-06-20T17:43:19.204Z,64562.73
2019-06-20T17:45:45.467Z,64564.61
2019-06-20T17:48:11.906Z,64560.08
2019-06-20T17:50:38.092Z,64549.01
2019-06-20T17:53:06.033Z,64539.16
2019-06-20T17:55:36.267Z,64536.51
2019-06-20T17:58:03.764Z,64526.55
2019-06-20T18:00:30.421Z,64527.99
2019-06-20T18:02:56.705Z,64516.05
2019-06-20T18:05:24.201Z,64498.09
2019-06-20T18:07:50.470Z,64482.38
2019-06-20T18:10:19.907Z,64476.86
2019-06-20T18:12:46.092Z,64468.00
2019-06-20T18:15:13.144Z,64452.20
2019-06-20T18:17:39.764Z,64434.27
2019-06-20T18:20:07.216Z,64414.16
2019-06-20T18:22:33.444Z,64404.75
2019-06-20T18:24:59.593Z,64400.76
2019-06-20T18:27:25.854Z,64398.99
2019-06-20T18:29:52.123Z,64394.45
2019-06-20T18:32:18.481Z,64395.22
2019-06-20T18:35:00.557Z,64393.02
2019-06-20T18:37:12.873Z,64387.16
2019-06-20T18:39:43.888Z,64375.12
2019-06-20T18:42:10.373Z,64379.10
2019-06-20T18:44:36.622Z,64381.09
2019-06-20T18:47:03.029Z,64375.44
2019-06-20T18:49:30.345Z,64378.65
2019-06-20T18:51:56.586Z,64375.44
2019-06-20T18:54:24.116Z,64376.21
2019-06-20T18:56:50.259Z,64370.91
2019-06-20T18:59:16.515Z,64365.50
2019-06-20T19:01:44.212Z,64368.27
2019-06-20T19:04:13.293Z,64357.87
2019-06-20T19:06:39.608Z,64350.37
2019-06-20T19:09:07.843Z,64347.49
2019-06-20T19:11:34.083Z,64344.18
2019-06-20T19:14:00.701Z,64340.20
2019-06-20T19:16:27.034Z,64329.60
2019-06-20T19:18:53.312Z,64325.63
2019-06-20T19:21:19.686Z,64316.01
2019-06-20T19:23:45.903Z,64310.16
2019-06-20T19:26:13.010Z,64302.31
2019-06-20T19:28:39.233Z,64299.45
2019-06-20T19:31:05.493Z,64292.94
2019-06-20T19:33:31.731Z,64289.84
2019-06-20T19:35:58.165Z,64286.83
2019-06-20T19:38:24.311Z,64290.05
2019-06-20T19:40:50.850Z,64278.77
2019-06-20T19:43:17.114Z,64274.35
2019-06-20T19:45:45.422Z,64273.24
2019-06-20T19:48:12.853Z,64268.29
2019-06-20T19:50:39.508Z,64272.16
2019-06-20T19:53:07.405Z,64269.83
2019-06-20T19:55:34.514Z,64269.51
2019-06-20T19:58:03.973Z,64259.79
2019-06-20T20:00:30.226Z,64253.60
2019-06-20T20:02:56.577Z,64243.67
2019-06-20T20:05:22.810Z,64243.01
2019-06-20T20:07:49.168Z,64233.18
2019-06-20T20:10:19.231Z,64227.34
2019-06-20T20:12:45.568Z,64216.75
2019-06-20T20:15:12.468Z,64216.75
2019-06-20T20:17:38.698Z,64212.98
2019-06-20T20:20:06.240Z,64212.54
2019-06-20T20:22:33.293Z,64212.32
2019-06-20T20:25:06.045Z,64212.88
2019-06-20T20:27:32.480Z,64211.98
2019-06-20T20:29:59.084Z,64207.69
2019-06-20T20:32:25.277Z,64212.43
2019-06-20T20:34:51.429Z,64205.15
2019-06-20T20:37:17.937Z,64205.26
2019-06-20T20:39:44.191Z,64203.04
2019-06-20T20:42:10.587Z,64196.55
2019-06-20T20:44:37.131Z,64190.81
2019-06-20T20:47:03.370Z,64185.18
2019-06-20T20:49:29.629Z,64184.41
2019-06-20T20:51:55.875Z,64184.41
2019-06-20T20:54:22.026Z,64187.82
2019-06-20T20:56:48.243Z,64174.48
2019-06-20T20:59:14.438Z,64173.03
2019-06-20T21:01:40.668Z,64171.93
2019-06-20T21:04:06.909Z,64174.36
2019-06-20T21:06:36.208Z,64163.32
2019-06-20T21:09:03.689Z,64165.73
2019-06-20T21:11:29.817Z,64157.91
2019-06-20T21:13:56.072Z,64157.91
2019-06-20T21:16:22.282Z,64162.77
2019-06-20T21:18:48.558Z,64156.82
2019-06-20T21:21:14.835Z,64157.35
2019-06-20T21:23:40.948Z,64157.35
2019-06-20T21:26:07.126Z,64159.46
2019-06-20T21:28:33.352Z,64154.04
2019-06-20T21:30:59.618Z,64152.95
2019-06-20T21:33:25.856Z,64153.49
2019-06-20T21:36:07.298Z,64157.24
2019-06-20T21:38:20.544Z,64149.75
2019-06-20T21:40:46.673Z,64148.32
2019-06-20T21:43:12.814Z,64147.43
2019-06-20T21:45:39.055Z,64145.00
2019-06-20T21:48:05.350Z,64148.64
2019-06-20T21:50:31.518Z,64146.55
2019-06-20T21:52:57.767Z,64143.68
2019-06-20T21:55:24.012Z,64143.91
2019-06-20T21:57:50.157Z,64144.12
2019-06-20T22:00:32.808Z,64144.89
2019-06-20T22:02:59.167Z,64143.01
2019-06-20T22:05:25.433Z,64140.60
2019-06-20T22:07:52.982Z,64147.21
2019-06-20T22:10:19.423Z,64144.12
2019-06-20T22:12:45.686Z,64146.21
2019-06-20T22:15:12.213Z,64142.14
2019-06-20T22:17:38.764Z,64137.51
2019-06-20T22:20:07.605Z,64133.20
2019-06-20T22:22:34.183Z,64133.65
2019-06-20T22:25:00.733Z,64137.72
2019-06-20T22:27:27.325Z,64137.17
2019-06-20T22:29:53.540Z,64132.88
2019-06-20T22:32:20.958Z,64131.98
2019-06-20T22:34:47.187Z,64132.64
2019-06-20T22:37:15.582Z,64127.04
2019-06-20T22:39:41.846Z,64128.12
2019-06-20T22:42:07.979Z,64125.16
2019-06-20T22:44:35.858Z,64118.65
2019-06-20T22:47:03.914Z,64115.45
2019-06-20T22:49:30.161Z,64110.27
2019-06-20T22:51:56.383Z,64105.86
2019-06-20T22:54:22.523Z,64103.55
2019-06-20T22:56:50.359Z,64099.04
2019-06-20T22:59:16.578Z,64099.35
2019-06-20T23:01:42.817Z,64094.94
2019-06-20T23:04:08.949Z,64092.40
2019-06-20T23:06:36.174Z,64086.79
2019-06-20T23:09:03.992Z,64081.61
2019-06-20T23:11:30.615Z,64079.07
2019-06-20T23:13:56.900Z,64071.91
2019-06-20T23:16:24.406Z,64062.55
2019-06-20T23:18:50.648Z,64054.07
2019-06-20T23:21:16.871Z,64048.76
2019-06-20T23:23:43.118Z,64039.93
2019-06-20T23:26:12.070Z,64030.69
2019-06-20T23:28:38.242Z,64022.63
2019-06-20T23:31:05.669Z,64013.94
2019-06-20T23:33:33.937Z,64013.06
2019-06-20T23:36:00.737Z,64009.42
2019-06-20T23:38:26.857Z,64004.13
2019-06-20T23:40:54.900Z,64001.04
2019-06-20T23:43:21.036Z,63990.90
2019-06-20T23:45:47.264Z,63982.43
2019-06-20T23:48:13.504Z,63975.82
2019-06-20T23:50:39.732Z,63973.73
2019-06-20T23:53:10.554Z,63959.87
2019-06-20T23:55:36.812Z,63954.56
2019-06-20T23:58:03.154Z,63951.15
